createdAt,value
2024-02-19T00:02:16.411Z,96944.42
2024-02-19T00:04:44.639Z,96944.87
2024-02-19T00:07:12.810Z,96944.90
2024-02-19T00:09:40.762Z,96945.34
2024-02-19T00:12:08.825Z,96933.40
2024-02-19T00:14:37.564Z,96935.75
2024-02-19T00:17:06.151Z,96932.08
2024-02-19T00:19:34.249Z,96931.92
2024-02-19T00:22:02.399Z,96924.82
2024-02-19T00:24:30.336Z,96917.92
2024-02-19T00:26:58.281Z,96920.36
2024-02-19T00:29:26.168Z,96911.88
2024-02-19T00:31:54.100Z,96911.52
2024-02-19T00:34:22.440Z,96911.10
2024-02-19T00:36:51.721Z,96907.01
2024-02-19T00:39:20.228Z,96907.57
2024-02-19T00:41:48.677Z,96904.21
2024-02-19T00:44:16.705Z,96901.70
2024-02-19T00:46:45.036Z,96901.40
2024-02-19T00:49:13.324Z,96893.35
2024-02-19T00:51:41.490Z,96891.14
2024-02-19T00:54:09.472Z,96884.34
2024-02-19T00:56:38.479Z,96878.41
2024-02-19T00:59:08.294Z,96874.11
2024-02-19T01:01:36.476Z,96872.41
2024-02-19T01:04:05.010Z,96864.70
2024-02-19T01:06:33.053Z,96863.01
2024-02-19T01:09:00.994Z,96859.98
2024-02-19T01:11:29.097Z,96860.17
2024-02-19T01:13:57.293Z,96857.08
2024-02-19T01:16:25.298Z,96854.35
2024-02-19T01:18:53.521Z,96846.39
2024-02-19T01:21:21.597Z,96841.03
2024-02-19T01:23:49.577Z,96833.80
2024-02-19T01:26:21.906Z,96828.46
2024-02-19T01:28:50.251Z,96821.72
2024-02-19T01:31:18.263Z,96823.14
2024-02-19T01:33:46.467Z,96815.90
2024-02-19T01:36:14.534Z,96807.11
2024-02-19T01:38:45.191Z,96807.78
2024-02-19T01:41:13.054Z,96802.35
2024-02-19T01:43:41.021Z,96799.40
2024-02-19T01:46:09.603Z,96799.29
2024-02-19T01:48:39.188Z,96795.46
2024-02-19T01:51:07.494Z,96796.16
2024-02-19T01:53:35.847Z,96792.23
2024-02-19T01:56:04.564Z,96789.20
2024-02-19T01:58:34.659Z,96788.02
2024-02-19T02:01:04.897Z,96781.85
2024-02-19T02:03:35.175Z,96781.33
2024-02-19T02:06:03.304Z,96778.09
2024-02-19T02:08:32.396Z,96780.15
2024-02-19T02:11:01.304Z,96777.37
2024-02-19T02:13:34.229Z,96776.38
2024-02-19T02:16:05.735Z,96771.39
2024-02-19T02:18:34.712Z,96771.38
2024-02-19T02:21:03.813Z,96763.52
2024-02-19T02:23:32.828Z,96761.81
2024-02-19T02:26:00.878Z,96755.38
2024-02-19T02:28:28.863Z,96757.38
2024-02-19T02:30:56.930Z,96754.66
2024-02-19T02:33:25.118Z,96755.67
2024-02-19T02:35:53.091Z,96756.63
2024-02-19T02:38:21.106Z,96744.59
2024-02-19T02:40:48.987Z,96742.52
2024-02-19T02:43:17.045Z,96736.48
2024-02-19T02:45:45.151Z,96728.34
2024-02-19T02:48:13.161Z,96722.73
2024-02-19T02:50:41.196Z,96723.41
2024-02-19T02:53:09.135Z,96721.52
2024-02-19T02:55:37.036Z,96717.40
2024-02-19T02:58:05.727Z,96711.70
2024-02-19T03:00:33.705Z,96709.24
2024-02-19T03:03:01.721Z,96701.42
2024-02-19T03:05:29.668Z,96696.00
2024-02-19T03:07:57.678Z,96693.54
2024-02-19T03:10:25.755Z,96690.79
2024-02-19T03:12:53.821Z,96687.15
2024-02-19T03:15:21.811Z,96681.92
2024-02-19T03:17:49.792Z,96683.36
2024-02-19T03:20:20.096Z,96680.10
2024-02-19T03:22:48.279Z,96673.71
2024-02-19T03:25:16.566Z,96671.35
2024-02-19T03:27:44.697Z,96668.58
2024-02-19T03:30:13.473Z,96662.45
2024-02-19T03:32:41.597Z,96660.09
2024-02-19T03:35:09.821Z,96656.13
2024-02-19T03:37:37.849Z,96652.71
2024-02-19T03:40:09.915Z,96655.56
2024-02-19T03:42:38.216Z,96652.50
2024-02-19T03:45:06.642Z,96651.81
2024-02-19T03:47:36.079Z,96650.36
2024-02-19T03:50:04.992Z,96648.77
2024-02-19T03:52:32.895Z,96640.98
2024-02-19T03:55:00.982Z,96641.58
2024-02-19T03:57:29.344Z,96635.86
2024-02-19T03:59:57.579Z,96630.21
2024-02-19T04:02:26.060Z,96626.29
2024-02-19T04:04:54.262Z,96628.92
2024-02-19T04:07:22.506Z,96622.92
2024-02-19T04:09:50.477Z,96625.05
2024-02-19T04:12:18.518Z,96619.27
2024-02-19T04:14:46.787Z,96616.07
2024-02-19T04:17:14.805Z,96614.81
2024-02-19T04:19:42.893Z,96605.55
2024-02-19T04:22:10.928Z,96602.58
2024-02-19T04:24:39.500Z,96601.22
2024-02-19T04:27:07.643Z,96592.27
2024-02-19T04:29:35.605Z,96593.71
2024-02-19T04:32:03.744Z,96592.86
2024-02-19T04:34:31.814Z,96582.88
2024-02-19T04:36:59.969Z,96579.77
2024-02-19T04:39:27.945Z,96578.91
2024-02-19T04:41:55.831Z,96580.02
2024-02-19T04:44:23.792Z,96578.34
2024-02-19T04:46:51.734Z,96576.20
2024-02-19T04:49:19.866Z,96563.82
2024-02-19T04:51:48.134Z,96560.46
2024-02-19T04:54:16.193Z,96564.28
2024-02-19T04:56:44.097Z,96555.34
2024-02-19T04:59:12.262Z,96553.33
2024-02-19T05:01:40.325Z,96553.46
2024-02-19T05:04:08.439Z,96552.26
2024-02-19T05:06:36.533Z,96551.20
2024-02-19T05:09:04.638Z,96547.10
2024-02-19T05:11:32.826Z,96546.76
2024-02-19T05:14:00.799Z,96545.10
2024-02-19T05:16:28.725Z,96540.23
2024-02-19T05:18:57.507Z,96538.51
2024-02-19T05:21:25.605Z,96539.45
2024-02-19T05:23:53.524Z,96536.70
2024-02-19T05:26:27.950Z,96532.73
2024-02-19T05:28:57.238Z,96534.23
2024-02-19T05:31:34.010Z,96532.85
2024-02-19T05:34:04.916Z,96526.40
2024-02-19T05:36:33.342Z,96524.84
2024-02-19T05:39:02.071Z,96522.38
2024-02-19T05:41:30.191Z,96519.41
2024-02-19T05:43:58.103Z,96515.80
2024-02-19T05:46:26.145Z,96512.71
2024-02-19T05:48:54.412Z,96512.13
2024-02-19T05:51:23.351Z,96511.52
2024-02-19T05:53:51.265Z,96504.09
2024-02-19T05:56:20.148Z,96507.88
2024-02-19T05:58:48.837Z,96505.94
2024-02-19T06:01:18.641Z,96505.40
2024-02-19T06:03:47.259Z,96505.55
2024-02-19T06:06:15.430Z,96500.30
2024-02-19T06:08:44.036Z,96503.18
2024-02-19T06:11:12.002Z,96500.94
2024-02-19T06:13:40.388Z,96492.08
2024-02-19T06:16:09.202Z,96493.59
2024-02-19T06:18:37.510Z,96490.23
2024-02-19T06:21:05.661Z,96488.64
2024-02-19T06:23:34.103Z,96486.48
2024-02-19T06:26:02.133Z,96482.73
2024-02-19T06:28:30.113Z,96478.50
2024-02-19T06:30:58.094Z,96477.89
2024-02-19T06:33:26.033Z,96476.75
2024-02-19T06:35:54.021Z,96477.38
2024-02-19T06:38:22.023Z,96477.25
2024-02-19T06:40:49.968Z,96479.77
2024-02-19T06:43:20.004Z,96479.93
2024-02-19T06:45:48.223Z,96482.40
2024-02-19T06:48:16.425Z,96475.08
2024-02-19T06:50:44.430Z,96473.15
2024-02-19T06:53:12.435Z,96473.35
2024-02-19T06:55:40.313Z,96467.66
2024-02-19T06:58:08.417Z,96469.63
2024-02-19T07:00:36.539Z,96468.11
2024-02-19T07:03:04.858Z,96469.93
2024-02-19T07:05:32.992Z,96466.98
2024-02-19T07:08:01.240Z,96473.80
2024-02-19T07:10:29.216Z,96468.02
2024-02-19T07:12:57.310Z,96463.80
2024-02-19T07:15:25.317Z,96462.41
2024-02-19T07:17:53.293Z,96460.89
2024-02-19T07:20:21.421Z,96462.83
2024-02-19T07:22:49.471Z,96458.77
2024-02-19T07:25:21.925Z,96456.23
2024-02-19T07:27:50.610Z,96451.48
2024-02-19T07:30:18.846Z,96450.02
2024-02-19T07:32:47.044Z,96447.37
2024-02-19T07:35:15.396Z,96445.54
2024-02-19T07:37:43.502Z,96443.05
2024-02-19T07:40:11.924Z,96437.39
2024-02-19T07:42:40.080Z,96433.45
2024-02-19T07:45:08.987Z,96435.63
2024-02-19T07:47:37.142Z,96435.30
2024-02-19T07:50:05.799Z,96428.11
2024-02-19T07:52:34.034Z,96425.00
2024-02-19T07:55:02.206Z,96423.48
2024-02-19T07:57:30.261Z,96421.94
2024-02-19T07:59:58.412Z,96419.59
2024-02-19T08:02:26.546Z,96415.93
2024-02-19T08:04:54.880Z,96407.86
2024-02-19T08:07:23.137Z,96402.80
2024-02-19T08:09:51.284Z,96406.27
2024-02-19T08:12:19.400Z,96401.77
2024-02-19T08:14:47.440Z,96403.05
2024-02-19T08:17:15.685Z,96405.98
2024-02-19T08:19:43.942Z,96403.56
2024-02-19T08:22:12.001Z,96404.74
2024-02-19T08:24:40.227Z,96407.61
2024-02-19T08:27:08.426Z,96406.09
2024-02-19T08:29:36.668Z,96406.70
2024-02-19T08:32:04.970Z,96400.81
2024-02-19T08:34:33.106Z,96403.33
2024-02-19T08:37:01.268Z,96400.05
2024-02-19T08:39:29.332Z,96401.77
2024-02-19T08:41:58.287Z,96395.31
2024-02-19T08:44:26.558Z,96394.97
2024-02-19T08:46:54.530Z,96397.17
2024-02-19T08:49:24.390Z,96394.54
2024-02-19T08:51:52.550Z,96394.17
2024-02-19T08:54:20.648Z,96390.90
2024-02-19T08:57:21.425Z,96388.76
2024-02-19T08:59:49.727Z,96390.45
2024-02-19T09:02:18.402Z,96390.04
2024-02-19T09:04:46.925Z,96388.66
2024-02-19T09:07:15.707Z,96388.31
2024-02-19T09:09:46.789Z,96391.00
2024-02-19T09:12:14.924Z,96386.84
2024-02-19T09:14:43.194Z,96383.36
2024-02-19T09:17:11.386Z,96378.76
2024-02-19T09:19:39.796Z,96375.70
2024-02-19T09:22:08.970Z,96377.55
2024-02-19T09:24:37.096Z,96374.08
2024-02-19T09:27:05.415Z,96375.58
2024-02-19T09:29:36.217Z,96375.25
2024-02-19T09:32:04.983Z,96376.61
2024-02-19T09:34:34.031Z,96376.08
2024-02-19T09:37:02.344Z,96368.86
2024-02-19T09:39:30.378Z,96371.20
2024-02-19T09:41:58.935Z,96367.26
2024-02-19T09:44:27.631Z,96368.77
2024-02-19T09:47:02.655Z,96367.38
2024-02-19T09:49:32.334Z,96368.16
2024-02-19T09:52:04.244Z,96359.34
2024-02-19T09:55:14.791Z,96356.10
2024-02-19T09:57:43.166Z,96354.71
2024-02-19T10:00:12.961Z,96355.27
2024-02-19T10:02:41.070Z,96349.13
2024-02-19T10:05:12.570Z,96347.84
2024-02-19T10:07:41.248Z,96345.90
2024-02-19T10:10:11.410Z,96344.67
2024-02-19T10:12:45.654Z,96339.80
2024-02-19T10:15:13.702Z,96340.13
2024-02-19T10:17:41.842Z,96332.91
2024-02-19T10:20:11.776Z,96329.59
2024-02-19T10:22:40.294Z,96330.37
2024-02-19T10:25:09.216Z,96327.94
2024-02-19T10:27:39.160Z,96330.65
2024-02-19T10:30:14.046Z,96324.35
2024-02-19T10:32:47.387Z,96314.37
2024-02-19T10:35:17.189Z,96314.34
2024-02-19T10:37:45.198Z,96313.12
2024-02-19T10:40:18.418Z,96315.90
2024-02-19T10:42:49.654Z,96314.63
2024-02-19T10:45:22.708Z,96310.38
2024-02-19T10:47:52.467Z,96303.27
2024-02-19T10:50:21.660Z,96299.48
2024-02-19T10:52:50.436Z,96297.46
2024-02-19T10:55:32.621Z,96296.03
2024-02-19T10:58:17.125Z,96289.44
2024-02-19T11:00:45.621Z,96289.67
2024-02-19T11:03:14.847Z,96292.27
2024-02-19T11:05:47.213Z,96293.70
2024-02-19T11:08:24.540Z,96286.37
2024-02-19T11:10:56.790Z,96288.83
2024-02-19T11:13:27.885Z,96285.01
2024-02-19T11:15:56.895Z,96284.23
2024-02-19T11:18:26.297Z,96283.27
2024-02-19T11:21:03.475Z,96277.48
2024-02-19T11:23:31.947Z,96277.67
2024-02-19T11:26:01.944Z,96278.70
2024-02-19T11:28:34.060Z,96280.20
2024-02-19T11:31:03.306Z,96277.80
2024-02-19T11:33:31.425Z,96273.93
2024-02-19T11:35:59.570Z,96276.67
2024-02-19T11:38:31.187Z,96273.80
2024-02-19T11:41:00.962Z,96272.16
2024-02-19T11:43:29.541Z,96268.76
2024-02-19T11:45:59.840Z,96267.42
2024-02-19T11:48:28.696Z,96263.15
2024-02-19T11:50:58.450Z,96257.45
2024-02-19T11:53:26.620Z,96258.77
2024-02-19T11:56:02.087Z,96253.86
2024-02-19T11:58:30.711Z,96255.65
2024-02-19T12:01:00.383Z,96254.95
2024-02-19T12:03:29.329Z,96250.54
2024-02-19T12:06:01.843Z,96252.57
2024-02-19T12:08:32.007Z,96249.50
2024-02-19T12:11:00.417Z,96252.10
2024-02-19T12:13:28.672Z,96246.27
2024-02-19T12:15:56.979Z,96249.73
2024-02-19T12:18:26.113Z,96249.33
2024-02-19T12:20:54.314Z,96250.59
2024-02-19T12:23:22.301Z,96242.92
2024-02-19T12:25:50.649Z,96241.67
2024-02-19T12:28:18.737Z,96240.41
2024-02-19T12:30:46.908Z,96239.27
2024-02-19T12:33:15.135Z,96234.05
2024-02-19T12:35:48.025Z,96231.85
2024-02-19T12:38:16.264Z,96230.67
2024-02-19T12:40:44.490Z,96228.80
2024-02-19T12:43:12.862Z,96225.85
2024-02-19T12:45:40.948Z,96223.27
2024-02-19T12:48:11.530Z,96223.19
2024-02-19T12:50:39.661Z,96219.39
2024-02-19T12:53:07.731Z,96210.89
2024-02-19T12:55:36.116Z,96211.98
2024-02-19T12:58:04.194Z,96214.02
2024-02-19T13:00:32.277Z,96214.35
2024-02-19T13:03:00.690Z,96207.95
2024-02-19T13:05:28.989Z,96211.67
2024-02-19T13:07:57.446Z,96212.79
2024-02-19T13:10:25.929Z,96209.02
2024-02-19T13:12:54.089Z,96208.34
2024-02-19T13:15:22.223Z,96210.91
2024-02-19T13:17:50.475Z,96211.98
2024-02-19T13:20:18.641Z,96211.45
2024-02-19T13:22:46.892Z,96213.20
2024-02-19T13:25:15.556Z,96215.03
2024-02-19T13:27:45.453Z,96213.91
2024-02-19T13:30:14.461Z,96215.15
2024-02-19T13:32:44.513Z,96215.22
2024-02-19T13:35:13.693Z,96219.02
2024-02-19T13:37:42.713Z,96218.27
2024-02-19T13:40:12.402Z,96216.60
2024-02-19T13:42:41.433Z,96214.20
2024-02-19T13:45:10.679Z,96219.42
2024-02-19T13:47:42.536Z,96215.67
2024-02-19T13:50:13.177Z,96216.83
2024-02-19T13:52:44.286Z,96216.73
2024-02-19T13:55:18.321Z,96222.02
2024-02-19T13:57:51.703Z,96218.77
2024-02-19T14:00:20.485Z,96217.56
2024-02-19T14:02:52.436Z,96218.23
2024-02-19T14:05:21.541Z,96220.33
2024-02-19T14:07:50.856Z,96222.00
2024-02-19T14:10:19.064Z,96226.59
2024-02-19T14:12:47.202Z,96230.96
2024-02-19T14:15:15.411Z,96236.63
2024-02-19T14:17:43.686Z,96245.46
2024-02-19T14:20:12.060Z,96244.30
2024-02-19T14:22:40.353Z,96243.84
2024-02-19T14:25:12.776Z,96253.96
2024-02-19T14:30:49.938Z,96252.52
2024-02-19T14:33:18.276Z,96254.41
2024-02-19T14:35:46.664Z,96258.32
2024-02-19T14:38:15.348Z,96262.31
2024-02-19T14:40:44.822Z,96267.61
2024-02-19T14:43:13.166Z,96262.35
2024-02-19T14:45:41.578Z,96262.36
2024-02-19T14:48:10.077Z,96264.49
2024-02-19T14:50:38.865Z,96265.10
2024-02-19T14:53:07.059Z,96263.73
2024-02-19T14:55:35.077Z,96263.21
2024-02-19T14:58:05.832Z,96264.30
2024-02-19T15:00:36.359Z,96263.02
2024-02-19T15:03:11.326Z,96261.01
2024-02-19T15:05:41.325Z,96259.75
2024-02-19T15:08:09.667Z,96257.19
2024-02-19T15:10:37.768Z,96260.88
2024-02-19T15:13:06.042Z,96263.08
2024-02-19T15:15:34.152Z,96264.23
2024-02-19T15:18:05.747Z,96265.70
2024-02-19T15:20:33.943Z,96270.91
2024-02-19T15:23:04.173Z,96270.06
2024-02-19T15:25:32.338Z,96269.36
2024-02-19T15:28:00.421Z,96275.77
2024-02-19T15:30:28.462Z,96275.33
2024-02-19T15:32:56.462Z,96277.73
2024-02-19T15:35:26.312Z,96281.45
2024-02-19T15:37:54.338Z,96286.98
2024-02-19T15:40:24.203Z,96287.48
2024-02-19T15:42:52.437Z,96290.20
2024-02-19T15:45:20.476Z,96288.82
2024-02-19T15:47:48.457Z,96292.20
2024-02-19T15:50:17.084Z,96294.34
2024-02-19T15:52:54.922Z,96293.86
2024-02-19T15:55:26.909Z,96295.72
2024-02-19T15:57:55.318Z,96294.84
2024-02-19T16:00:23.659Z,96297.86
2024-02-19T16:02:51.700Z,96302.14
2024-02-19T16:05:19.792Z,96304.85
2024-02-19T16:07:50.379Z,96302.77
2024-02-19T16:10:20.251Z,96308.81
2024-02-19T16:12:50.672Z,96309.88
2024-02-19T16:15:18.892Z,96312.38
2024-02-19T16:17:46.937Z,96307.96
2024-02-19T16:20:15.857Z,96309.81
2024-02-19T16:22:44.226Z,96309.86
2024-02-19T16:25:12.304Z,96308.60
2024-02-19T16:27:40.443Z,96312.72
2024-02-19T16:30:10.725Z,96316.58
2024-02-19T16:32:39.034Z,96316.12
2024-02-19T16:35:07.625Z,96316.44
2024-02-19T16:37:35.936Z,96313.08
2024-02-19T16:40:04.406Z,96316.05
2024-02-19T16:42:36.880Z,96318.89
2024-02-19T16:45:05.831Z,96321.69
2024-02-19T16:47:34.018Z,96322.22
2024-02-19T16:50:02.522Z,96320.65
2024-02-19T16:52:30.752Z,96327.99
2024-02-19T16:54:58.918Z,96328.79
2024-02-19T16:57:26.968Z,96336.09
2024-02-19T16:59:55.124Z,96334.85
2024-02-19T17:02:23.193Z,96343.53
2024-02-19T17:04:52.833Z,96339.84
2024-02-19T17:07:21.599Z,96346.26
2024-02-19T17:09:49.697Z,96339.25
2024-02-19T17:12:17.797Z,96338.98
2024-02-19T17:14:46.150Z,96343.66
2024-02-19T17:17:14.172Z,96346.73
2024-02-19T17:19:42.729Z,96346.13
2024-02-19T17:22:10.898Z,96342.25
2024-02-19T17:24:40.596Z,96351.50
2024-02-19T17:27:11.968Z,96355.30
2024-02-19T17:29:43.824Z,96357.27
2024-02-19T17:32:12.267Z,96351.64
2024-02-19T17:34:40.526Z,96350.33
2024-02-19T17:37:08.567Z,96355.80
2024-02-19T17:39:37.047Z,96360.08
2024-02-19T17:42:05.416Z,96363.52
2024-02-19T17:44:33.906Z,96364.81
2024-02-19T17:47:03.365Z,96357.65
2024-02-19T17:49:32.474Z,96361.29
2024-02-19T17:52:00.866Z,96360.06
2024-02-19T17:54:30.820Z,96359.11
2024-02-19T17:57:02.259Z,96363.37
2024-02-19T17:59:35.340Z,96372.55
2024-02-19T18:02:04.961Z,96366.98
2024-02-19T18:04:33.420Z,96370.92
2024-02-19T18:07:02.257Z,96363.77
2024-02-19T18:09:30.567Z,96367.00
2024-02-19T18:11:58.699Z,96373.98
2024-02-19T18:14:29.240Z,96364.19
2024-02-19T18:16:57.476Z,96367.80
2024-02-19T18:19:25.748Z,96370.29
2024-02-19T18:21:55.709Z,96373.44
2024-02-19T18:24:23.986Z,96374.27
2024-02-19T18:26:52.088Z,96373.67
2024-02-19T18:29:20.187Z,96375.13
2024-02-19T18:31:53.196Z,96377.59
2024-02-19T18:34:21.369Z,96377.83
2024-02-19T18:36:54.526Z,96381.98
2024-02-19T18:39:22.681Z,96378.02
2024-02-19T18:41:52.324Z,96382.52
2024-02-19T18:44:20.323Z,96380.63
2024-02-19T18:46:48.310Z,96382.61
2024-02-19T18:49:18.383Z,96379.95
2024-02-19T18:51:47.538Z,96384.90
2024-02-19T18:54:15.816Z,96384.56
2024-02-19T18:56:46.384Z,96381.86
2024-02-19T18:59:14.607Z,96377.08
2024-02-19T19:01:42.843Z,96384.66
2024-02-19T19:04:11.064Z,96386.90
2024-02-19T19:06:39.342Z,96386.63
2024-02-19T19:09:08.193Z,96388.30
2024-02-19T19:11:36.450Z,96391.92
2024-02-19T19:14:04.582Z,96396.77
2024-02-19T19:16:33.734Z,96396.42
2024-02-19T19:19:04.661Z,96402.70
2024-02-19T19:21:33.588Z,96401.69
2024-02-19T19:24:04.581Z,96398.12
2024-02-19T19:26:34.272Z,96404.94
2024-02-19T19:29:02.950Z,96405.20
2024-02-19T19:31:33.078Z,96410.63
2024-02-19T19:34:01.460Z,96407.53
2024-02-19T19:36:30.324Z,96413.97
2024-02-19T19:38:58.514Z,96411.29
2024-02-19T19:41:26.513Z,96418.14
2024-02-19T19:43:54.531Z,96418.89
2024-02-19T19:46:22.534Z,96421.77
2024-02-19T19:48:50.679Z,96424.95
2024-02-19T19:51:19.716Z,96424.20
2024-02-19T19:53:47.774Z,96429.33
2024-02-19T19:56:17.269Z,96433.23
2024-02-19T19:58:45.489Z,96436.39
2024-02-19T20:01:13.690Z,96435.38
2024-02-19T20:03:41.753Z,96444.11
2024-02-19T20:06:09.861Z,96441.17
2024-02-19T20:08:37.950Z,96447.27
2024-02-19T20:11:08.185Z,96449.98
2024-02-19T20:13:36.368Z,96451.00
2024-02-19T20:16:05.511Z,96458.61
2024-02-19T20:18:34.306Z,96457.99
2024-02-19T20:21:03.056Z,96458.31
2024-02-19T20:23:33.068Z,96456.05
2024-02-19T20:26:07.918Z,96460.66
2024-02-19T20:28:36.115Z,96458.34
2024-02-19T20:31:06.653Z,96456.23
2024-02-19T20:33:38.822Z,96457.51
2024-02-19T20:36:12.227Z,96455.14
2024-02-19T20:38:40.319Z,96461.23
2024-02-19T20:41:10.531Z,96465.06
2024-02-19T20:43:52.456Z,96458.70
2024-02-19T20:46:22.316Z,96465.16
2024-02-19T20:48:53.255Z,96461.41
2024-02-19T20:51:25.640Z,96468.16
2024-02-19T20:53:53.660Z,96462.08
2024-02-19T20:56:24.104Z,96467.21
2024-02-19T20:58:53.265Z,96467.60
2024-02-19T21:01:21.414Z,96466.91
2024-02-19T21:04:04.147Z,96469.64
2024-02-19T21:06:32.309Z,96474.36
2024-02-19T21:09:00.428Z,96470.80
2024-02-19T21:11:28.593Z,96473.38
2024-02-19T21:13:56.703Z,96477.00
2024-02-19T21:16:25.559Z,96475.88
2024-02-19T21:18:53.710Z,96471.59
2024-02-19T21:21:30.168Z,96474.30
2024-02-19T21:24:03.793Z,96479.80
2024-02-19T21:26:32.458Z,96482.62
2024-02-19T21:29:01.181Z,96477.64
2024-02-19T21:31:29.286Z,96480.36
2024-02-19T21:33:57.631Z,96482.07
2024-02-19T21:36:26.028Z,96476.98
2024-02-19T21:39:04.590Z,96473.27
2024-02-19T21:41:38.363Z,96474.07
2024-02-19T21:44:07.945Z,96476.31
2024-02-19T21:46:37.286Z,96476.01
2024-02-19T21:49:06.101Z,96476.52
2024-02-19T21:51:37.533Z,96478.44
2024-02-19T21:54:06.937Z,96478.00
2024-02-19T21:56:34.917Z,96478.30
2024-02-19T21:59:02.898Z,96477.61
2024-02-19T22:01:32.151Z,96479.52
2024-02-19T22:04:03.832Z,96478.30
2024-02-19T22:06:32.875Z,96478.48
2024-02-19T22:09:01.782Z,96480.40
2024-02-19T22:11:30.347Z,96479.26
2024-02-19T22:13:58.464Z,96482.98
2024-02-19T22:16:26.547Z,96482.95
2024-02-19T22:18:54.746Z,96485.77
2024-02-19T22:21:22.798Z,96487.39
2024-02-19T22:23:50.735Z,96487.17
2024-02-19T22:26:18.612Z,96485.04
2024-02-19T22:28:46.582Z,96484.05
2024-02-19T22:31:14.638Z,96482.45
2024-02-19T22:33:42.584Z,96481.41
2024-02-19T22:36:10.488Z,96477.16
2024-02-19T22:38:39.152Z,96478.05
2024-02-19T22:41:07.131Z,96476.85
2024-02-19T22:43:35.214Z,96479.85
2024-02-19T22:46:03.378Z,96480.04
2024-02-19T22:48:31.383Z,96481.90
2024-02-19T22:50:59.492Z,96482.11
2024-02-19T22:53:27.388Z,96476.02
2024-02-19T22:55:55.469Z,96471.23
2024-02-19T22:58:31.537Z,96473.72
2024-02-19T23:01:03.698Z,96473.63
2024-02-19T23:03:32.017Z,96474.73
2024-02-19T23:06:00.288Z,96475.52
2024-02-19T23:08:28.585Z,96477.91
2024-02-19T23:10:56.763Z,96480.48
2024-02-19T23:13:24.885Z,96481.66
2024-02-19T23:15:53.060Z,96480.73
2024-02-19T23:18:22.947Z,96485.11
2024-02-19T23:20:51.111Z,96482.75
2024-02-19T23:23:19.129Z,96478.73
2024-02-19T23:25:51.990Z,96479.86
2024-02-19T23:28:20.611Z,96476.32
2024-02-19T23:30:48.717Z,96476.23
2024-02-19T23:33:16.914Z,96471.85
2024-02-19T23:35:46.503Z,96475.14
2024-02-19T23:38:18.976Z,96474.55
2024-02-19T23:40:47.132Z,96481.17
2024-02-19T23:43:17.963Z,96480.66
2024-02-19T23:45:46.302Z,96478.66
2024-02-19T23:48:14.334Z,96477.45
2024-02-19T23:50:42.263Z,96476.54
2024-02-19T23:53:10.572Z,96477.52
2024-02-19T23:55:38.514Z,96475.54
2024-02-19T23:58:06.882Z,96477.25
